Time;durP1;ratioP1;P1;durP2;ratioP2;P2;SDS_P1;SDS_P2;PMS_P1;PMS_P2;Temp;Humidity;BMP_temperature;BMP_pressure;BME280_temperature;BME280_humidity;BME280_pressure;Samples;Min_cycle;Max_cycle;Signal;HPM_P1;HPM_P2
2022/04/29 00:00:36;;;;;;;;;31.00;30.00;;;;;17.02;45.92;102077.88;5093134;27;45211;-76
2022/04/29 00:03:03;;;;;;;;;26.50;25.75;;;;;17.05;45.61;102088.59;5092702;28;45086;-82
2022/04/29 00:05:29;;;;;;;;;29.25;29.25;;;;;16.99;45.50;102080.44;5094405;28;45005;-83
2022/04/29 00:07:55;;;;;;;;;31.50;30.00;;;;;16.91;45.63;102071.34;5092974;27;45286;-81
2022/04/29 00:10:20;;;;;;;;;31.00;29.75;;;;;16.92;45.75;102074.03;5094174;27;45665;-81
2022/04/29 00:12:48;;;;;;;;;23.00;23.00;;;;;16.93;45.87;102066.97;5094766;27;45051;-92
2022/04/29 00:15:15;;;;;;;;;26.75;26.25;;;;;16.95;45.63;102070.59;5076542;27;44964;-91
2022/04/29 00:17:42;;;;;;;;;26.00;26.00;;;;;16.92;45.72;102076.69;5093137;28;44952;-92
2022/04/29 00:20:08;;;;;;;;;33.00;30.00;;;;;16.91;45.93;102074.00;5093477;28;45571;-91
2022/04/29 00:22:34;;;;;;;;;32.75;30.00;;;;;16.85;45.66;102066.75;5094100;28;45116;-91
2022/04/29 00:25:00;;;;;;;;;28.25;27.25;;;;;16.84;45.55;102064.03;5094811;27;45010;-93
2022/04/29 00:27:25;;;;;;;;;29.75;27.75;;;;;16.77;45.92;102053.25;5095182;27;45118;-92
2022/04/29 00:29:51;;;;;;;;;33.00;30.50;;;;;16.62;46.07;102027.97;5094723;27;44975;-74
2022/04/29 00:32:16;;;;;;;;;31.00;28.00;;;;;16.70;45.78;102043.28;5094574;27;44963;-92
2022/04/29 00:34:42;;;;;;;;;30.25;29.25;;;;;16.69;45.98;102045.84;5094360;27;44943;-92
2022/04/29 00:37:07;;;;;;;;;28.33;27.00;;;;;16.71;46.16;102054.78;5094544;28;45014;-92
2022/04/29 00:39:33;;;;;;;;;29.75;28.00;;;;;16.62;46.29;102050.09;5094136;27;45598;-92
2022/04/29 00:41:59;;;;;;;;;29.75;28.75;;;;;16.65;46.16;102054.56;5094902;27;45154;-91
2022/04/29 00:44:25;;;;;;;;;35.75;30.00;;;;;16.61;45.94;102055.38;5094513;27;45281;-90
2022/04/29 00:46:51;;;;;;;;;29.25;28.25;;;;;16.56;46.12;102047.25;5093965;27;45359;-91
2022/04/29 00:49:17;;;;;;;;;27.00;26.25;;;;;16.48;46.18;102044.34;5093812;27;45801;-89
2022/04/29 00:51:46;;;;;;;;;25.50;22.75;;;;;16.40;46.38;102034.34;5093862;28;45397;-92
2022/04/29 00:54:21;;;;;;;;;27.50;26.00;;;;;16.46;46.65;102043.41;5093750;27;45922;-92
2022/04/29 00:56:49;;;;;;;;;30.50;30.00;;;;;16.44;46.76;102045.09;5094196;27;45226;-90
2022/04/29 00:59:21;;;;;;;;;32.75;30.75;;;;;16.37;46.71;102039.56;5093602;28;45565;-92
2022/04/29 01:01:47;;;;;;;;;30.50;28.75;;;;;16.34;46.83;102040.34;5093407;27;45028;-92
2022/04/29 01:04:18;;;;;;;;;31.25;30.25;;;;;16.33;46.76;102041.22;5093772;27;45063;-92
2022/04/29 01:06:43;;;;;;;;;36.25;32.75;;;;;16.21;47.08;102025.81;5094366;27;44992;-90
2022/04/29 01:09:09;;;;;;;;;30.25;28.75;;;;;16.18;46.97;102024.81;5084150;27;46283;-90
2022/04/29 01:11:34;;;;;;;;;33.75;32.00;;;;;16.08;47.18;102015.66;5073621;28;47004;-92
2022/04/29 01:14:00;;;;;;;;;29.50;29.00;;;;;16.18;47.72;102031.00;5073710;28;45149;-92
2022/04/29 01:16:25;;;;;;;;;34.75;31.00;;;;;16.04;47.13;102007.56;5073720;28;45360;-91
2022/04/29 01:18:53;;;;;;;;;31.33;29.33;;;;;16.11;47.18;102025.47;5072990;28;44983;-91
2022/04/29 01:21:18;;;;;;;;;29.00;28.75;;;;;16.07;47.69;102029.78;5073050;28;45212;-94
2022/04/29 01:23:44;;;;;;;;;30.50;30.00;;;;;15.98;47.85;102019.75;5073708;28;45004;-91
2022/04/29 01:26:14;;;;;;;;;34.25;31.00;;;;;16.00;47.65;102028.66;5073493;28;45272;-91
2022/04/29 01:28:43;;;;;;;;;34.00;30.25;;;;;15.86;47.77;102005.19;5073228;28;45021;-91
2022/04/29 01:31:11;;;;;;;;;36.00;32.50;;;;;15.89;48.04;102016.81;5071380;28;45074;-81
2022/04/29 01:33:41;;;;;;;;;35.25;30.50;;;;;15.91;48.04;102023.06;5072296;28;45071;-89
2022/04/29 01:36:07;;;;;;;;;30.25;28.00;;;;;15.89;47.94;102032.72;5072352;28;45155;-93
2022/04/29 01:38:32;;;;;;;;;34.50;31.75;;;;;15.84;48.44;102031.66;5072612;28;45785;-85
2022/04/29 01:40:58;;;;;;;;;34.00;31.00;;;;;15.83;48.46;102031.63;5072042;28;53531;-92
2022/04/29 01:43:24;;;;;;;;;38.25;33.00;;;;;15.82;48.25;102030.72;5072360;28;45253;-92
2022/04/29 01:45:49;;;;;;;;;33.50;30.75;;;;;15.75;48.62;102028.69;5072861;28;45237;-92
2022/04/29 01:48:14;;;;;;;;;36.00;32.00;;;;;15.79;48.46;102035.00;5072535;28;45113;-92
2022/04/29 01:50:40;;;;;;;;;39.00;34.00;;;;;15.77;48.33;102042.91;5072305;28;45455;-89
2022/04/29 01:53:05;;;;;;;;;26.00;25.00;;;;;15.66;48.35;102017.78;5072679;28;45161;-85
2022/04/29 01:55:30;;;;;;;;;39.75;34.50;;;;;15.63;48.59;102017.66;5072059;28;45166;-89
2022/04/29 01:57:56;;;;;;;;;36.00;32.67;;;;;15.69;48.78;102026.72;5072704;28;45730;-91
2022/04/29 02:00:22;;;;;;;;;33.50;30.50;;;;;15.66;48.77;102024.00;5072756;28;44990;-92
2022/04/29 02:02:47;;;;;;;;;39.00;33.25;;;;;15.65;48.93;102019.53;5071653;28;45040;-92
2022/04/29 02:05:13;;;;;;;;;36.50;31.50;;;;;15.46;48.75;101996.75;5072858;28;45196;-91
2022/04/29 02:07:38;;;;;;;;;34.00;32.00;;;;;15.57;48.64;102018.34;5073003;28;44983;-91
2022/04/29 02:10:04;;;;;;;;;35.50;32.25;;;;;15.60;48.95;102026.38;5072944;28;45120;-91
2022/04/29 02:12:29;;;;;;;;;35.00;32.00;;;;;15.59;48.92;102031.63;5072850;28;45255;-91
2022/04/29 02:14:55;;;;;;;;;35.67;33.00;;;;;15.52;49.12;102022.59;5072850;28;44899;-90
2022/04/29 02:17:20;;;;;;;;;33.25;31.25;;;;;15.59;49.09;102029.88;5072699;28;45749;-91
2022/04/29 02:19:46;;;;;;;;;39.00;34.75;;;;;15.59;48.91;102035.19;5072352;28;44998;-91
2022/04/29 02:22:11;;;;;;;;;39.50;34.50;;;;;15.60;49.07;102034.31;5072555;28;45175;-91
2022/04/29 02:24:37;;;;;;;;;36.75;32.00;;;;;15.60;48.99;102044.94;5072498;28;45107;-89
2022/04/29 02:27:04;;;;;;;;;33.75;30.75;;;;;15.55;49.14;102040.31;5088102;28;46962;-91
2022/04/29 02:29:29;;;;;;;;;38.25;34.00;;;;;15.60;48.78;102038.72;5072480;28;45227;-85
2022/04/29 02:31:58;;;;;;;;;38.00;34.00;;;;;15.45;48.86;102024.09;5072533;28;45215;-91
2022/04/29 02:34:23;;;;;;;;;36.00;32.75;;;;;15.56;49.05;102035.06;5071766;28;45246;-91
2022/04/29 02:36:49;;;;;;;;;36.75;31.25;;;;;15.51;48.91;102034.00;5082651;28;45604;-93
2022/04/29 02:39:14;;;;;;;;;34.50;31.25;;;;;15.58;49.22;102035.16;5093129;27;44987;-93
2022/04/29 02:41:40;;;;;;;;;42.67;36.33;;;;;15.62;49.20;102045.91;5092729;27;45125;-89
2022/04/29 02:44:05;;;;;;;;;36.00;32.50;;;;;15.62;48.99;102035.31;5092540;28;44850;-92
2022/04/29 02:46:31;;;;;;;;;36.50;33.00;;;;;15.63;48.75;102038.84;5092361;27;45130;-91
2022/04/29 02:48:56;;;;;;;;;38.00;33.00;;;;;15.63;49.05;102039.78;5092408;27;44952;-91
2022/04/29 02:51:22;;;;;;;;;38.00;33.25;;;;;15.56;48.83;102026.22;5092914;28;44985;-91
2022/04/29 02:53:47;;;;;;;;;37.00;32.67;;;;;15.58;49.04;102029.84;5094054;27;47627;-90
2022/04/29 02:56:12;;;;;;;;;37.00;33.75;;;;;15.60;48.84;102041.38;5096002;27;45658;-91
2022/04/29 02:58:38;;;;;;;;;38.50;34.00;;;;;15.60;49.03;102036.97;5096099;28;44955;-94
2022/04/29 03:01:03;;;;;;;;;35.33;32.67;;;;;15.60;48.88;102038.72;5096366;28;45041;-91
2022/04/29 03:03:29;;;;;;;;;36.50;33.25;;;;;15.59;49.03;102031.63;5095872;28;45201;-90
2022/04/29 03:05:55;;;;;;;;;42.00;35.00;;;;;15.47;49.16;102018.88;5096510;27;45214;-92
2022/04/29 03:08:20;;;;;;;;;34.25;32.25;;;;;15.57;49.09;102030.69;5082691;27;45010;-91
2022/04/29 03:10:46;;;;;;;;;54.00;44.25;;;;;15.56;48.93;102027.13;5096287;27;45070;-89
2022/04/29 03:13:13;;;;;;;;;50.75;41.50;;;;;15.60;49.08;102038.72;5096103;27;44993;-91
2022/04/29 03:15:38;;;;;;;;;41.75;36.00;;;;;15.58;48.94;102036.03;5096109;27;45184;-91
2022/04/29 03:18:20;;;;;;;;;43.00;35.00;;;;;15.53;49.00;102023.47;5095195;27;44712;-92
2022/04/29 03:20:48;;;;;;;;;43.75;36.75;;;;;15.53;48.93;102032.31;5095175;27;44981;-93
2022/04/29 03:23:14;;;;;;;;;48.75;39.75;;;;;15.54;48.98;102030.56;5095623;27;45193;-91
2022/04/29 03:25:42;;;;;;;;;45.50;38.75;;;;;15.53;48.73;102032.31;5094761;27;45178;-89
2022/04/29 03:28:08;;;;;;;;;42.00;36.00;;;;;15.48;48.95;102018.03;5094845;27;45337;-92
2022/04/29 03:30:35;;;;;;;;;41.00;35.50;;;;;15.44;48.76;102013.47;5095304;27;45019;-91
2022/04/29 03:33:03;;;;;;;;;42.25;36.50;;;;;15.52;48.99;102032.25;5094714;27;45330;-92
2022/04/29 03:35:29;;;;;;;;;43.25;36.00;;;;;15.44;48.88;102013.47;5094771;27;45636;-80
2022/04/29 03:37:55;;;;;;;;;35.25;32.00;;;;;15.48;49.03;102018.03;5094870;27;45089;-87
2022/04/29 03:40:22;;;;;;;;;42.25;35.25;;;;;15.47;49.11;102019.78;5094757;27;45745;-87
2022/04/29 03:42:52;;;;;;;;;38.50;34.00;;;;;15.43;49.27;102009.91;5094477;28;45217;-85
2022/04/29 03:45:18;;;;;;;;;35.75;32.75;;;;;15.42;49.02;102012.50;5094882;28;45182;-74
2022/04/29 03:47:44;;;;;;;;;41.00;36.00;;;;;15.45;49.37;102010.84;5094400;27;45086;-89
2022/04/29 03:50:13;;;;;;;;;36.50;33.25;;;;;15.20;48.73;101981.69;5094745;27;44989;-76
2022/04/29 03:52:49;;;;;;;;;30.75;29.50;;;;;15.34;49.13;101991.03;5094933;27;45274;-90
2022/04/29 03:55:15;;;;;;;;;38.75;34.50;;;;;15.38;49.07;101992.94;5094672;27;45113;-88
2022/04/29 03:57:41;;;;;;;;;37.75;33.75;;;;;15.38;49.27;101989.41;5094784;27;45240;-86
2022/04/29 04:00:08;;;;;;;;;37.00;33.00;;;;;15.38;49.29;101992.06;5094880;27;45212;-83
2022/04/29 04:02:34;;;;;;;;;43.00;34.50;;;;;15.28;49.29;101980.22;5091819;27;45040;-78
2022/04/29 04:04:59;;;;;;;;;36.75;33.00;;;;;15.30;49.13;101986.47;5093682;27;45299;-83
2022/04/29 04:07:24;;;;;;;;;37.00;33.67;;;;;15.15;49.34;101962.09;5092812;28;49984;-78
2022/04/29 04:09:49;;;;;;;;;41.50;35.25;;;;;15.28;49.42;101982.00;5093324;28;45164;-78
2022/04/29 04:12:15;;;;;;;;;43.00;34.67;;;;;15.27;49.45;101977.50;5093404;28;46682;-76
2022/04/29 04:14:40;;;;;;;;;39.25;35.25;;;;;15.22;49.23;101980.94;5092930;27;45206;-86
2022/04/29 04:17:07;;;;;;;;;38.33;34.00;;;;;15.25;49.82;101985.41;5093874;28;44853;-88
2022/04/29 04:19:33;;;;;;;;;39.00;35.25;;;;;15.26;49.65;101992.50;5093942;27;44999;-88
2022/04/29 04:21:58;;;;;;;;;38.50;34.00;;;;;15.22;49.39;101974.69;5094663;27;45188;-80
2022/04/29 04:24:23;;;;;;;;;39.50;35.00;;;;;15.25;49.70;101989.81;5094239;27;44973;-91
2022/04/29 04:26:48;;;;;;;;;39.67;33.67;;;;;15.22;49.34;101988.88;5094171;27;44889;-89
2022/04/29 04:29:14;;;;;;;;;41.00;36.00;;;;;15.11;49.68;101978.72;5094571;27;45157;-83
2022/04/29 04:31:39;;;;;;;;;38.67;34.00;;;;;15.18;49.86;101999.31;5081352;27;45271;-74
2022/04/29 04:34:49;;;;;;;;;39.75;34.00;;;;;15.17;49.69;102000.13;5081480;28;45702;-88
2022/04/29 04:36:53;;;;;;;;;38.50;34.25;;;;;15.09;49.97;101991.91;5076252;28;45191;-82
2022/04/29 04:39:18;;;;;;;;;42.25;36.50;;;;;15.06;49.57;101988.25;5072642;28;45011;-79
2022/04/29 04:41:44;;;;;;;;;37.75;33.50;;;;;15.11;49.60;102008.75;5077746;28;45231;-76
2022/04/29 04:44:09;;;;;;;;;36.00;33.00;;;;;14.98;49.74;101977.41;5091332;27;45102;-75
2022/04/29 04:46:36;;;;;;;;;39.67;35.00;;;;;14.97;49.63;101983.50;5091037;27;52863;-79
2022/04/29 04:49:01;;;;;;;;;35.75;32.50;;;;;15.01;49.70;101995.13;5093940;27;45269;-87
2022/04/29 04:51:27;;;;;;;;;36.25;33.00;;;;;15.09;49.75;102001.59;5094623;27;45169;-92
2022/04/29 04:53:52;;;;;;;;;42.25;36.00;;;;;15.08;50.02;102007.75;5094255;27;45125;-92
2022/04/29 04:56:17;;;;;;;;;34.67;32.67;;;;;15.09;49.65;102004.25;5094235;27;50405;-85
2022/04/29 04:58:42;;;;;;;;;41.00;34.67;;;;;14.93;49.80;101979.88;5094510;27;45080;-93
2022/04/29 05:01:08;;;;;;;;;39.33;34.00;;;;;15.09;50.13;102004.25;5094180;27;45228;-93
2022/04/29 05:03:33;;;;;;;;;42.00;36.00;;;;;15.11;49.99;102010.50;5083760;27;45664;-92
2022/04/29 05:05:58;;;;;;;;;41.00;34.33;;;;;14.92;49.74;101969.22;5094330;27;45105;-93
2022/04/29 05:08:24;;;;;;;;;41.67;36.00;;;;;15.11;49.74;102013.16;5094035;27;44884;-92
2022/04/29 05:10:49;;;;;;;;;40.33;35.33;;;;;15.03;49.85;101998.75;5093747;28;49168;-93
2022/04/29 05:13:14;;;;;;;;;37.50;33.75;;;;;15.01;49.91;101995.13;5081436;27;45536;-92
2022/04/29 05:15:42;;;;;;;;;39.67;34.67;;;;;15.11;49.81;102008.75;5080847;27;45025;-93
2022/04/29 05:18:08;;;;;;;;;44.25;36.50;;;;;15.10;49.88;102014.91;5078404;27;45276;-89
2022/04/29 05:20:34;;;;;;;;;37.25;33.25;;;;;15.09;49.83;102017.50;5069562;28;44990;-91
2022/04/29 05:22:59;;;;;;;;;36.67;32.33;;;;;15.01;49.87;102001.31;5073955;28;45326;-91
2022/04/29 05:25:24;;;;;;;;;44.75;37.50;;;;;15.04;49.70;102006.75;5077635;28;45389;-92
2022/04/29 05:27:50;;;;;;;;;37.50;34.25;;;;;15.04;49.98;102006.75;5095144;27;45171;-93
2022/04/29 05:30:15;;;;;;;;;37.50;33.25;;;;;15.06;49.88;102020.03;5070990;28;45375;-82
2022/04/29 05:32:41;;;;;;;;;40.25;34.25;;;;;14.99;49.89;102010.97;5076040;27;45687;-85
2022/04/29 05:35:08;;;;;;;;;45.00;36.00;;;;;14.99;49.90;102015.34;5071889;28;45347;-83
2022/04/29 05:37:34;;;;;;;;;41.25;34.00;;;;;15.03;49.71;102022.56;5069592;27;46575;-78
2022/04/29 05:42:43;;;;;;;;;43.25;37.00;;;;;14.94;49.96;102018.72;5075956;28;45438;-75
2022/04/29 05:45:09;;;;;;;;;45.50;36.25;;;;;14.82;49.81;101997.09;5072714;27;45185;-75
2022/04/29 05:47:35;;;;;;;;;34.50;31.50;;;;;15.02;49.88;102033.97;5071408;27;45340;-82
2022/04/29 05:50:01;;;;;;;;;39.50;33.25;;;;;14.96;49.95;102024.97;5073783;28;47399;-78
2022/04/29 05:52:26;;;;;;;;;42.75;34.75;;;;;14.84;49.89;102002.47;5071757;28;49011;-75
2022/04/29 05:54:52;;;;;;;;;43.25;35.50;;;;;15.04;49.78;102033.22;5086204;27;45321;-78
2022/04/29 05:57:17;;;;;;;;;37.00;33.00;;;;;15.01;50.04;102025.16;5090202;27;45197;-80
2022/04/29 05:59:42;;;;;;;;;38.33;34.33;;;;;15.04;49.70;102022.63;5090893;27;45233;-80
2022/04/29 06:02:08;;;;;;;;;36.75;32.75;;;;;15.14;50.16;102045.03;5090354;27;45612;-77
2022/04/29 06:04:34;;;;;;;;;40.75;35.50;;;;;15.11;50.05;102043.16;5090163;27;45515;-82
2022/04/29 06:06:59;;;;;;;;;39.25;34.00;;;;;15.14;49.90;102042.41;5090477;27;45420;-76
2022/04/29 06:09:25;;;;;;;;;41.00;35.00;;;;;15.15;49.80;102039.78;5091056;27;45137;-79
2022/04/29 06:11:51;;;;;;;;;38.75;33.00;;;;;15.18;49.98;102046.97;5091252;28;44997;-83
2022/04/29 06:14:16;;;;;;;;;36.25;33.00;;;;;15.10;49.52;102043.13;5091309;28;44909;-83
2022/04/29 06:16:43;;;;;;;;;40.50;35.75;;;;;15.20;50.05;102055.84;5092157;27;45033;-80
2022/04/29 06:19:08;;;;;;;;;39.75;34.50;;;;;15.22;49.99;102054.16;5092254;27;45130;-81
2022/04/29 06:21:34;;;;;;;;;41.25;34.50;;;;;15.24;49.98;102052.47;5092054;27;45335;-76
2022/04/29 06:23:59;;;;;;;;;44.00;36.00;;;;;15.24;50.06;102047.19;5092211;27;45075;-77
2022/04/29 06:26:24;;;;;;;;;39.50;35.50;;;;;15.22;49.78;102047.13;5092044;28;45039;-76
2022/04/29 06:28:50;;;;;;;;;34.00;31.67;;;;;15.21;49.83;102033.81;5093936;27;45318;-76
2022/04/29 06:31:15;;;;;;;;;35.00;32.67;;;;;15.33;49.42;102052.81;5094927;28;52424;-76
2022/04/29 06:33:41;;;;;;;;;40.00;34.00;;;;;15.35;49.60;102051.13;5099208;28;45215;-76
2022/04/29 06:36:07;;;;;;;;;37.75;34.50;;;;;15.41;49.70;102053.97;5101747;28;45051;-86
2022/04/29 06:38:32;;;;;;;;;39.50;34.00;;;;;15.44;49.44;102064.69;5100056;27;44893;-89
2022/04/29 06:40:58;;;;;;;;;37.75;33.75;;;;;15.45;49.27;102063.84;5100856;27;45197;-90
2022/04/29 06:43:24;;;;;;;;;38.75;33.75;;;;;15.46;49.00;102065.63;5101129;28;45228;-84
2022/04/29 06:45:49;;;;;;;;;35.50;32.75;;;;;15.51;49.25;102072.84;5101176;28;44975;-87
2022/04/29 06:48:14;;;;;;;;;35.00;33.00;;;;;15.51;49.03;102072.84;5101939;27;44846;-92
2022/04/29 06:50:41;;;;;;;;;37.00;33.50;;;;;15.52;49.06;102075.59;5101611;27;45107;-90
2022/04/29 06:53:07;;;;;;;;;38.50;34.25;;;;;15.55;48.92;102066.81;5101275;27;45128;-86
2022/04/29 06:55:36;;;;;;;;;43.00;34.00;;;;;15.53;48.88;102069.44;5098081;27;44933;-92
2022/04/29 06:58:02;;;;;;;;;41.50;33.50;;;;;15.58;48.79;102078.44;5097614;27;44787;-89
2022/04/29 07:00:27;;;;;;;;;37.75;33.25;;;;;15.58;49.04;102081.09;5096229;27;45916;-83
2022/04/29 07:02:52;;;;;;;;;36.00;33.00;;;;;15.53;48.86;102068.53;5097156;28;45200;-75
2022/04/29 07:05:19;;;;;;;;;42.25;34.25;;;;;15.49;48.70;102059.56;5095830;27;45265;-76
2022/04/29 07:07:49;;;;;;;;;37.00;33.00;;;;;15.57;48.85;102076.66;5094423;27;45060;-77
2022/04/29 07:10:15;;;;;;;;;35.25;32.25;;;;;15.57;49.45;102071.34;5093940;28;45639;-77
2022/04/29 07:12:42;;;;;;;;;37.75;32.75;;;;;15.58;48.90;102069.59;5094220;28;45041;-75
2022/04/29 07:15:09;;;;;;;;;35.25;32.75;;;;;15.59;49.07;102063.44;5093815;27;45070;-76
2022/04/29 07:17:34;;;;;;;;;43.25;34.00;;;;;15.60;49.13;102067.88;5093891;27;44928;-75
2022/04/29 07:19:59;;;;;;;;;35.67;33.00;;;;;15.57;49.19;102060.75;5093462;28;45314;-79
2022/04/29 07:22:25;;;;;;;;;34.00;31.50;;;;;15.50;49.22;102042.81;5093529;27;44897;-75
2022/04/29 07:24:50;;;;;;;;;35.50;32.75;;;;;15.68;48.92;102072.66;5094170;28;45043;-76
2022/04/29 07:27:16;;;;;;;;;39.67;35.67;;;;;15.66;49.52;102069.06;5093822;27;45008;-76
2022/04/29 07:29:42;;;;;;;;;36.25;32.75;;;;;15.76;49.14;102072.91;5093477;27;45723;-75
2022/04/29 07:32:07;;;;;;;;;39.75;35.00;;;;;15.89;49.20;102087.50;5093466;27;45149;-76
2022/04/29 07:42:55;;;;;;;;;41.25;36.25;;;;;15.89;48.83;102066.28;5069774;28;45658;-77
2022/04/29 07:45:20;;;;;;;;;43.00;36.75;;;;;15.94;48.59;102086.78;5073514;28;45104;-77
2022/04/29 07:47:46;;;;;;;;;46.00;37.00;;;;;15.94;48.67;102083.25;5073016;28;44909;-76
2022/04/29 07:50:12;;;;;;;;;41.50;35.75;;;;;15.99;48.70;102079.91;5072368;28;45577;-76
2022/04/29 07:52:38;;;;;;;;;40.25;36.00;;;;;16.05;49.00;102078.28;5072826;28;45528;-75
2022/04/29 07:55:03;;;;;;;;;42.67;36.00;;;;;16.04;48.55;102072.09;5072844;28;44898;-76
2022/04/29 07:57:29;;;;;;;;;38.75;34.25;;;;;16.19;48.55;102092.94;5071464;28;45763;-75
2022/04/29 07:59:54;;;;;;;;;41.00;34.67;;;;;16.24;48.68;102081.59;5072861;28;45212;-75
2022/04/29 08:02:19;;;;;;;;;40.00;35.00;;;;;16.41;48.68;102084.84;5072159;28;52576;-76
2022/04/29 08:04:44;;;;;;;;;41.33;36.67;;;;;16.56;48.29;102078.22;5072839;28;45123;-77
2022/04/29 08:07:11;;;;;;;;;41.00;35.50;;;;;16.69;48.78;102075.06;5072504;28;45363;-85
2022/04/29 08:09:37;;;;;;;;;43.00;36.75;;;;;16.81;48.00;102070.19;5074001;28;45441;-85
2022/04/29 08:12:03;;;;;;;;;43.25;37.50;;;;;16.83;48.32;102064.91;5074220;28;45310;-86
2022/04/29 08:14:28;;;;;;;;;45.75;38.50;;;;;16.94;47.80;102077.63;5074316;28;45255;-90
2022/04/29 08:16:54;;;;;;;;;43.75;35.75;;;;;16.98;47.75;102087.50;5073778;28;45197;-87
2022/04/29 08:19:19;;;;;;;;;46.50;39.75;;;;;16.94;47.88;102082.06;5073293;28;53747;-78
2022/04/29 08:21:44;;;;;;;;;44.67;36.67;;;;;16.92;47.60;102089.97;5073906;28;46668;-81
2022/04/29 08:24:09;;;;;;;;;47.67;38.33;;;;;16.94;47.73;102082.94;5072748;28;46865;-90
2022/04/29 08:26:35;;;;;;;;;46.25;38.25;;;;;16.95;48.06;102079.47;5073723;28;44957;-80
2022/04/29 08:29:00;;;;;;;;;44.50;37.25;;;;;16.97;48.10;102083.06;5073985;28;44979;-91
2022/04/29 08:31:26;;;;;;;;;46.00;38.00;;;;;17.07;47.76;102093.94;5073506;28;45156;-82
2022/04/29 08:33:51;;;;;;;;;46.33;37.67;;;;;17.08;47.78;102090.44;5073529;28;45020;-91
2022/04/29 08:36:17;;;;;;;;;50.00;40.00;;;;;17.05;47.40;102087.72;5073965;28;45075;-92
2022/04/29 08:38:43;;;;;;;;;48.00;40.50;;;;;17.03;47.50;102079.66;5073988;28;45926;-90
2022/04/29 08:41:09;;;;;;;;;46.25;38.75;;;;;17.24;48.26;102103.31;5073704;28;45238;-90
2022/04/29 08:43:34;;;;;;;;;50.00;40.75;;;;;17.39;47.90;102095.81;5073543;28;45173;-87
2022/04/29 08:46:01;;;;;;;;;53.00;40.50;;;;;17.47;47.59;102101.31;5073707;28;45068;-84
2022/04/29 08:48:30;;;;;;;;;51.00;43.00;;;;;17.23;47.68;102056.34;5071989;28;47333;-88
2022/04/29 08:50:59;;;;;;;;;52.75;43.00;;;;;17.46;47.62;102097.75;5071338;28;45105;-91
2022/04/29 08:53:25;;;;;;;;;49.50;39.75;;;;;17.43;47.21;102097.66;5074043;28;45012;-91
2022/04/29 08:58:38;;;;;;;;;50.00;40.75;;;;;17.33;47.49;102077.00;5074542;28;45124;-93
2022/04/29 09:01:05;;;;;;;;;47.25;39.00;;;;;17.33;47.45;102087.63;5073878;28;45019;-90
2022/04/29 09:03:31;;;;;;;;;46.50;37.75;;;;;17.18;47.55;102079.22;5073611;28;44921;-93
2022/04/29 09:05:56;;;;;;;;;51.50;41.25;;;;;17.14;48.04;102079.97;5073884;28;44890;-90
2022/04/29 09:08:23;;;;;;;;;49.67;41.00;;;;;17.12;47.93;102079.94;5073773;28;46872;-93
2022/04/29 09:10:51;;;;;;;;;51.50;42.50;;;;;17.32;47.68;102095.56;5074296;28;45251;-84
2022/04/29 09:13:24;;;;;;;;;52.50;42.00;;;;;17.38;48.11;102079.78;5073255;28;45100;-92
2022/04/29 09:15:51;;;;;;;;;50.50;41.25;;;;;17.43;48.00;102084.38;5073513;28;45292;-89
2022/04/29 09:18:39;;;;;;;;;52.25;42.25;;;;;17.45;47.32;102089.75;5073166;28;45326;-93
2022/04/29 09:21:07;;;;;;;;;53.25;42.25;;;;;17.44;47.52;102094.16;5073898;28;45130;-87
2022/04/29 09:23:37;;;;;;;;;55.25;44.00;;;;;17.44;48.05;102079.97;5092939;27;45118;-93
2022/04/29 09:26:05;;;;;;;;;51.00;41.00;;;;;17.52;47.33;102087.28;5094423;27;45017;-94
2022/04/29 09:28:35;;;;;;;;;55.00;44.00;;;;;17.55;47.42;102083.81;5092987;28;46419;-93
2022/04/29 09:31:01;;;;;;;;;53.25;43.75;;;;;17.56;47.34;102076.75;5093557;27;45041;-92
2022/04/29 09:33:28;;;;;;;;;49.25;40.75;;;;;17.68;47.24;102087.69;5092951;27;44983;-91
2022/04/29 09:35:55;;;;;;;;;55.00;44.00;;;;;17.74;46.94;102082.59;5093703;27;45198;-93
2022/04/29 09:41:06;;;;;;;;;56.25;46.25;;;;;17.90;47.19;102076.81;5094373;28;45134;-93
2022/04/29 09:43:40;;;;;;;;;52.75;42.25;;;;;18.01;47.24;102071.78;5094245;28;45034;-92
2022/04/29 09:46:17;;;;;;;;;50.50;42.75;;;;;18.19;46.95;102071.34;5093828;27;44984;-93
2022/04/29 09:48:54;;;;;;;;;54.00;44.75;;;;;18.41;46.69;102062.09;5093549;27;45880;-91
2022/04/29 09:51:38;;;;;;;;;53.75;43.50;;;;;18.68;46.58;102062.78;5094144;27;45236;-88
2022/04/29 09:54:39;;;;;;;;;54.25;44.00;;;;;18.85;46.07;102055.16;5093852;28;45166;-92
2022/04/29 09:57:23;;;;;;;;;54.00;45.25;;;;;19.01;46.17;102062.63;5089305;27;45122;-90
2022/04/29 09:59:51;;;;;;;;;56.25;45.75;;;;;19.19;45.59;102071.84;5093276;28;45260;-92
2022/04/29 10:02:25;;;;;;;;;56.50;46.00;;;;;19.30;45.07;102070.28;5093826;27;45014;-90
2022/04/29 10:04:52;;;;;;;;;52.50;43.75;;;;;19.34;45.35;102065.03;5097181;27;44994;-92
2022/04/29 10:07:20;;;;;;;;;52.00;42.00;;;;;19.31;45.15;102051.69;5097326;27;45036;-92
2022/04/29 10:09:47;;;;;;;;;51.75;42.00;;;;;19.41;44.92;102066.09;5097246;27;45239;-92
2022/04/29 10:12:18;;;;;;;;;53.75;43.50;;;;;19.41;44.75;102066.09;5095720;28;45118;-90
2022/04/29 10:14:45;;;;;;;;;51.00;42.00;;;;;19.47;44.50;102063.53;5097351;28;45066;-93
2022/04/29 10:22:53;;;;;;;;;53.50;44.50;;;;;19.73;44.65;102069.38;5096486;28;45065;-93
2022/04/29 10:25:21;;;;;;;;;55.00;44.75;;;;;19.79;44.42;102057.91;5097439;27;45133;-93
2022/04/29 10:27:49;;;;;;;;;55.50;46.50;;;;;19.89;44.19;102054.53;5096785;27;45026;-91
2022/04/29 10:30:30;;;;;;;;;51.50;43.75;;;;;20.06;44.03;102061.06;5097302;27;45639;-92
2022/04/29 10:33:10;;;;;;;;;49.50;41.75;;;;;20.27;43.25;102056.94;5096334;28;45073;-93
2022/04/29 10:35:49;;;;;;;;;50.00;41.25;;;;;20.47;43.08;102058.19;5096814;27;45252;-93
2022/04/29 10:38:15;;;;;;;;;50.25;43.00;;;;;20.55;43.12;102052.97;5096688;27;45170;-91
2022/04/29 10:40:41;;;;;;;;;50.50;42.75;;;;;20.71;42.75;102051.41;5096845;27;45028;-92
2022/04/29 10:43:09;;;;;;;;;46.25;39.25;;;;;20.78;42.53;102048.81;5096183;27;45416;-92
2022/04/29 10:45:36;;;;;;;;;50.25;40.50;;;;;20.84;41.90;102053.38;5095343;27;45287;-92
2022/04/29 10:48:31;;;;;;;;;49.50;41.50;;;;;20.91;41.97;102049.00;5096814;28;44987;-92
2022/04/29 10:50:57;;;;;;;;;49.25;39.75;;;;;20.98;41.90;102027.69;5092990;28;45864;-93
2022/04/29 10:53:24;;;;;;;;;52.50;43.75;;;;;21.27;41.29;102044.06;5112367;27;45212;-93
2022/04/29 10:55:50;;;;;;;;;51.00;41.00;;;;;21.40;41.58;102041.59;5096340;27;44999;-92
2022/04/29 10:58:23;;;;;;;;;48.25;39.25;;;;;21.46;40.83;102047.88;5096717;27;45425;-91
2022/04/29 11:01:21;;;;;;;;;44.25;38.00;;;;;21.33;40.56;102045.97;5096786;27;45590;-86
2022/04/29 11:03:47;;;;;;;;;48.50;39.25;;;;;21.24;40.46;102035.16;5083550;27;45132;-93
2022/04/29 11:06:14;;;;;;;;;45.00;38.50;;;;;21.26;40.90;102057.44;5095760;27;45137;-93
2022/04/29 11:08:41;;;;;;;;;45.25;39.25;;;;;21.19;40.59;102052.91;5096526;27;45227;-93
2022/04/29 11:11:07;;;;;;;;;46.00;38.75;;;;;21.02;40.39;102039.31;5095804;27;46332;-94
2022/04/29 11:13:42;;;;;;;;;43.75;38.75;;;;;20.99;40.75;102045.53;5095165;27;44994;-92
2022/04/29 11:16:15;;;;;;;;;44.50;38.50;;;;;21.07;41.09;102041.16;5094099;28;45432;-90
2022/04/29 11:18:43;;;;;;;;;47.00;39.75;;;;;21.13;40.70;102029.66;5093348;27;45311;-92
2022/04/29 11:26:46;;;;;;;;;45.50;36.00;;;;;21.80;40.02;102038.41;5093159;27;45129;-83
2022/04/29 11:29:12;;;;;;;;;41.00;35.00;;;;;21.90;39.33;102031.38;5095579;27;45433;-90
2022/04/29 11:31:39;;;;;;;;;46.75;37.25;;;;;21.94;39.66;102038.53;5094678;27;45051;-79
2022/04/29 11:34:23;;;;;;;;;45.25;37.50;;;;;21.95;39.78;102032.28;5094322;27;45041;-84
2022/04/29 11:36:56;;;;;;;;;46.75;37.50;;;;;21.95;39.32;102018.03;5094790;27;45199;-82